sensor_id;sensor_type;location;lat;lon;timestamp;P1;durP1;ratioP1;P2;durP2;ratioP2
22764;SDS011;11549;50.852;3.816;2024-02-14T00:00:09;14.02;;;10.25;;
22764;SDS011;11549;50.852;3.816;2024-02-14T00:02:41;15.27;;;9.63;;
22764;SDS011;11549;50.852;3.816;2024-02-14T00:05:16;12.57;;;9.55;;
22764;SDS011;11549;50.852;3.816;2024-02-14T00:07:45;12.93;;;9.38;;
22764;SDS011;11549;50.852;3.816;2024-02-14T00:10:14;14.45;;;9.98;;
22764;SDS011;11549;50.852;3.816;2024-02-14T00:12:42;13.90;;;10.20;;
22764;SDS011;11549;50.852;3.816;2024-02-14T00:15:11;13.68;;;9.55;;
22764;SDS011;11549;50.852;3.816;2024-02-14T00:17:39;15.63;;;10.02;;
22764;SDS011;11549;50.852;3.816;2024-02-14T00:20:10;15.07;;;9.68;;
22764;SDS011;11549;50.852;3.816;2024-02-14T00:22:39;12.38;;;9.57;;
22764;SDS011;11549;50.852;3.816;2024-02-14T00:25:07;13.25;;;9.80;;
22764;SDS011;11549;50.852;3.816;2024-02-14T00:27:37;13.02;;;9.18;;
22764;SDS011;11549;50.852;3.816;2024-02-14T00:30:06;11.77;;;8.88;;
22764;SDS011;11549;50.852;3.816;2024-02-14T00:32:36;13.80;;;9.25;;
22764;SDS011;11549;50.852;3.816;2024-02-14T00:35:04;12.90;;;9.45;;
22764;SDS011;11549;50.852;3.816;2024-02-14T00:37:35;16.13;;;9.85;;
22764;SDS011;11549;50.852;3.816;2024-02-14T00:40:04;12.88;;;9.10;;
22764;SDS011;11549;50.852;3.816;2024-02-14T00:42:34;13.30;;;9.60;;
22764;SDS011;11549;50.852;3.816;2024-02-14T00:45:03;13.52;;;9.50;;
22764;SDS011;11549;50.852;3.816;2024-02-14T00:47:35;10.85;;;8.77;;
22764;SDS011;11549;50.852;3.816;2024-02-14T00:50:04;13.65;;;9.93;;
22764;SDS011;11549;50.852;3.816;2024-02-14T00:52:35;15.23;;;10.00;;
22764;SDS011;11549;50.852;3.816;2024-02-14T00:55:04;14.13;;;9.13;;
22764;SDS011;11549;50.852;3.816;2024-02-14T00:57:32;15.85;;;10.07;;
22764;SDS011;11549;50.852;3.816;2024-02-14T01:00:01;11.95;;;9.15;;
22764;SDS011;11549;50.852;3.816;2024-02-14T01:02:30;14.00;;;9.55;;
22764;SDS011;11549;50.852;3.816;2024-02-14T01:04:59;13.05;;;9.57;;
22764;SDS011;11549;50.852;3.816;2024-02-14T01:07:27;14.45;;;9.40;;
22764;SDS011;11549;50.852;3.816;2024-02-14T01:09:58;15.60;;;9.43;;
22764;SDS011;11549;50.852;3.816;2024-02-14T01:12:26;12.85;;;9.15;;
22764;SDS011;11549;50.852;3.816;2024-02-14T01:14:56;13.10;;;9.32;;
22764;SDS011;11549;50.852;3.816;2024-02-14T01:17:24;12.32;;;9.77;;
22764;SDS011;11549;50.852;3.816;2024-02-14T01:19:53;12.10;;;9.43;;
22764;SDS011;11549;50.852;3.816;2024-02-14T01:22:21;14.27;;;9.05;;
22764;SDS011;11549;50.852;3.816;2024-02-14T01:24:50;13.25;;;9.73;;
22764;SDS011;11549;50.852;3.816;2024-02-14T01:27:20;16.25;;;9.27;;
22764;SDS011;11549;50.852;3.816;2024-02-14T01:29:49;12.48;;;9.07;;
22764;SDS011;11549;50.852;3.816;2024-02-14T01:32:17;12.90;;;9.38;;
22764;SDS011;11549;50.852;3.816;2024-02-14T01:34:46;13.82;;;9.57;;
22764;SDS011;11549;50.852;3.816;2024-02-14T01:37:15;15.07;;;9.00;;
22764;SDS011;11549;50.852;3.816;2024-02-14T01:39:44;15.73;;;9.82;;
22764;SDS011;11549;50.852;3.816;2024-02-14T01:42:12;15.32;;;10.38;;
22764;SDS011;11549;50.852;3.816;2024-02-14T01:44:42;10.93;;;8.75;;
22764;SDS011;11549;50.852;3.816;2024-02-14T01:47:11;14.32;;;9.25;;
22764;SDS011;11549;50.852;3.816;2024-02-14T01:49:40;11.02;;;8.95;;
22764;SDS011;11549;50.852;3.816;2024-02-14T01:52:10;12.93;;;8.77;;
22764;SDS011;11549;50.852;3.816;2024-02-14T01:54:39;17.23;;;9.80;;
22764;SDS011;11549;50.852;3.816;2024-02-14T01:57:09;12.10;;;8.98;;
22764;SDS011;11549;50.852;3.816;2024-02-14T01:59:38;15.20;;;9.40;;
22764;SDS011;11549;50.852;3.816;2024-02-14T02:02:08;14.05;;;8.77;;
22764;SDS011;11549;50.852;3.816;2024-02-14T02:04:37;15.00;;;8.88;;
22764;SDS011;11549;50.852;3.816;2024-02-14T02:07:05;12.18;;;9.43;;
22764;SDS011;11549;50.852;3.816;2024-02-14T02:09:34;11.73;;;9.00;;
22764;SDS011;11549;50.852;3.816;2024-02-14T02:12:02;16.67;;;10.23;;
22764;SDS011;11549;50.852;3.816;2024-02-14T02:14:34;12.77;;;8.60;;
22764;SDS011;11549;50.852;3.816;2024-02-14T02:17:03;10.40;;;8.73;;
22764;SDS011;11549;50.852;3.816;2024-02-14T02:19:35;13.02;;;8.73;;
22764;SDS011;11549;50.852;3.816;2024-02-14T02:22:04;13.38;;;9.90;;
22764;SDS011;11549;50.852;3.816;2024-02-14T02:24:34;11.65;;;8.73;;
22764;SDS011;11549;50.852;3.816;2024-02-14T02:27:03;13.05;;;8.93;;
22764;SDS011;11549;50.852;3.816;2024-02-14T02:29:32;11.65;;;8.85;;
22764;SDS011;11549;50.852;3.816;2024-02-14T02:32:00;11.68;;;8.63;;
22764;SDS011;11549;50.852;3.816;2024-02-14T02:34:29;12.68;;;8.65;;
22764;SDS011;11549;50.852;3.816;2024-02-14T02:36:58;10.82;;;8.38;;
22764;SDS011;11549;50.852;3.816;2024-02-14T02:39:26;13.52;;;9.20;;
22764;SDS011;11549;50.852;3.816;2024-02-14T02:41:56;15.65;;;8.98;;
22764;SDS011;11549;50.852;3.816;2024-02-14T02:44:26;15.65;;;9.02;;
22764;SDS011;11549;50.852;3.816;2024-02-14T02:46:55;12.07;;;8.77;;
22764;SDS011;11549;50.852;3.816;2024-02-14T02:49:24;11.25;;;8.85;;
22764;SDS011;11549;50.852;3.816;2024-02-14T02:51:52;14.52;;;8.80;;
22764;SDS011;11549;50.852;3.816;2024-02-14T02:54:22;14.65;;;9.02;;
22764;SDS011;11549;50.852;3.816;2024-02-14T02:56:50;12.40;;;8.82;;
22764;SDS011;11549;50.852;3.816;2024-02-14T02:59:20;14.57;;;9.00;;
22764;SDS011;11549;50.852;3.816;2024-02-14T03:01:49;12.55;;;9.20;;
22764;SDS011;11549;50.852;3.816;2024-02-14T03:04:18;11.38;;;9.07;;
22764;SDS011;11549;50.852;3.816;2024-02-14T03:06:46;12.32;;;8.98;;
22764;SDS011;11549;50.852;3.816;2024-02-14T03:09:15;14.15;;;9.30;;
22764;SDS011;11549;50.852;3.816;2024-02-14T03:11:45;13.85;;;9.48;;
22764;SDS011;11549;50.852;3.816;2024-02-14T03:14:15;14.35;;;9.32;;
22764;SDS011;11549;50.852;3.816;2024-02-14T03:16:45;15.50;;;9.50;;
22764;SDS011;11549;50.852;3.816;2024-02-14T03:19:13;13.73;;;9.02;;
22764;SDS011;11549;50.852;3.816;2024-02-14T03:21:42;13.80;;;9.90;;
22764;SDS011;11549;50.852;3.816;2024-02-14T03:24:13;15.88;;;9.90;;
22764;SDS011;11549;50.852;3.816;2024-02-14T03:26:42;12.43;;;9.10;;
22764;SDS011;11549;50.852;3.816;2024-02-14T03:29:12;14.27;;;9.52;;
22764;SDS011;11549;50.852;3.816;2024-02-14T03:31:44;12.80;;;9.45;;
22764;SDS011;11549;50.852;3.816;2024-02-14T03:34:13;16.13;;;10.10;;
22764;SDS011;11549;50.852;3.816;2024-02-14T03:36:42;13.98;;;10.02;;
22764;SDS011;11549;50.852;3.816;2024-02-14T03:39:10;15.18;;;10.38;;
22764;SDS011;11549;50.852;3.816;2024-02-14T03:41:39;15.70;;;10.32;;
22764;SDS011;11549;50.852;3.816;2024-02-14T03:44:08;17.17;;;10.63;;
22764;SDS011;11549;50.852;3.816;2024-02-14T03:46:36;16.27;;;11.35;;
22764;SDS011;11549;50.852;3.816;2024-02-14T03:49:06;13.63;;;10.95;;
22764;SDS011;11549;50.852;3.816;2024-02-14T03:51:35;19.00;;;12.20;;
22764;SDS011;11549;50.852;3.816;2024-02-14T03:54:03;17.05;;;11.07;;
22764;SDS011;11549;50.852;3.816;2024-02-14T03:56:32;17.23;;;11.98;;
22764;SDS011;11549;50.852;3.816;2024-02-14T03:59:00;17.02;;;11.32;;
22764;SDS011;11549;50.852;3.816;2024-02-14T04:01:32;16.48;;;11.75;;
22764;SDS011;11549;50.852;3.816;2024-02-14T04:04:01;20.15;;;12.15;;
22764;SDS011;11549;50.852;3.816;2024-02-14T04:06:31;17.67;;;11.80;;
22764;SDS011;11549;50.852;3.816;2024-02-14T04:08:59;18.63;;;11.52;;
22764;SDS011;11549;50.852;3.816;2024-02-14T04:11:28;17.20;;;11.40;;
22764;SDS011;11549;50.852;3.816;2024-02-14T04:13:56;16.02;;;11.50;;
22764;SDS011;11549;50.852;3.816;2024-02-14T04:16:24;17.20;;;11.23;;
22764;SDS011;11549;50.852;3.816;2024-02-14T04:18:53;16.95;;;11.05;;
22764;SDS011;11549;50.852;3.816;2024-02-14T04:21:22;17.10;;;11.80;;
22764;SDS011;11549;50.852;3.816;2024-02-14T04:23:53;16.95;;;11.73;;
22764;SDS011;11549;50.852;3.816;2024-02-14T04:26:21;16.33;;;11.93;;
22764;SDS011;11549;50.852;3.816;2024-02-14T04:28:50;15.02;;;12.27;;
22764;SDS011;11549;50.852;3.816;2024-02-14T04:31:19;17.35;;;12.13;;
22764;SDS011;11549;50.852;3.816;2024-02-14T04:33:47;19.42;;;12.20;;
22764;SDS011;11549;50.852;3.816;2024-02-14T04:36:19;18.88;;;11.77;;
22764;SDS011;11549;50.852;3.816;2024-02-14T04:38:49;19.58;;;11.10;;
22764;SDS011;11549;50.852;3.816;2024-02-14T04:41:19;18.67;;;11.32;;
22764;SDS011;11549;50.852;3.816;2024-02-14T04:43:49;15.77;;;10.57;;
22764;SDS011;11549;50.852;3.816;2024-02-14T04:46:18;16.60;;;10.68;;
22764;SDS011;11549;50.852;3.816;2024-02-14T04:48:49;16.45;;;10.73;;
22764;SDS011;11549;50.852;3.816;2024-02-14T04:51:17;14.48;;;11.15;;
22764;SDS011;11549;50.852;3.816;2024-02-14T04:53:46;15.43;;;10.80;;
22764;SDS011;11549;50.852;3.816;2024-02-14T04:56:14;14.60;;;10.15;;
22764;SDS011;11549;50.852;3.816;2024-02-14T04:58:44;17.00;;;10.63;;
22764;SDS011;11549;50.852;3.816;2024-02-14T05:01:13;16.17;;;10.30;;
22764;SDS011;11549;50.852;3.816;2024-02-14T05:03:42;14.75;;;10.40;;
22764;SDS011;11549;50.852;3.816;2024-02-14T05:06:10;14.30;;;10.63;;
22764;SDS011;11549;50.852;3.816;2024-02-14T05:08:39;14.10;;;10.00;;
22764;SDS011;11549;50.852;3.816;2024-02-14T05:11:07;15.50;;;9.75;;
22764;SDS011;11549;50.852;3.816;2024-02-14T05:13:36;15.02;;;10.10;;
22764;SDS011;11549;50.852;3.816;2024-02-14T05:16:10;14.07;;;9.57;;
22764;SDS011;11549;50.852;3.816;2024-02-14T05:18:38;15.05;;;9.18;;
22764;SDS011;11549;50.852;3.816;2024-02-14T05:21:07;15.18;;;10.07;;
22764;SDS011;11549;50.852;3.816;2024-02-14T05:23:36;18.33;;;9.98;;
22764;SDS011;11549;50.852;3.816;2024-02-14T05:26:05;15.05;;;9.88;;
22764;SDS011;11549;50.852;3.816;2024-02-14T05:28:33;13.95;;;9.13;;
22764;SDS011;11549;50.852;3.816;2024-02-14T05:31:02;13.23;;;9.60;;
22764;SDS011;11549;50.852;3.816;2024-02-14T05:33:32;15.90;;;10.00;;
22764;SDS011;11549;50.852;3.816;2024-02-14T05:36:00;13.93;;;9.57;;
22764;SDS011;11549;50.852;3.816;2024-02-14T05:38:29;15.50;;;9.77;;
22764;SDS011;11549;50.852;3.816;2024-02-14T05:40:58;14.18;;;9.25;;
22764;SDS011;11549;50.852;3.816;2024-02-14T05:43:27;14.82;;;9.70;;
22764;SDS011;11549;50.852;3.816;2024-02-14T05:45:55;18.15;;;9.70;;
22764;SDS011;11549;50.852;3.816;2024-02-14T05:48:24;16.83;;;9.73;;
22764;SDS011;11549;50.852;3.816;2024-02-14T05:50:54;13.00;;;8.48;;
22764;SDS011;11549;50.852;3.816;2024-02-14T05:53:23;14.40;;;9.30;;
22764;SDS011;11549;50.852;3.816;2024-02-14T05:55:51;18.02;;;9.88;;
22764;SDS011;11549;50.852;3.816;2024-02-14T05:58:19;15.15;;;9.25;;
22764;SDS011;11549;50.852;3.816;2024-02-14T06:00:48;16.83;;;9.63;;
22764;SDS011;11549;50.852;3.816;2024-02-14T06:03:16;18.05;;;9.65;;
22764;SDS011;11549;50.852;3.816;2024-02-14T06:05:45;14.50;;;9.60;;
22764;SDS011;11549;50.852;3.816;2024-02-14T06:08:15;16.60;;;9.57;;
22764;SDS011;11549;50.852;3.816;2024-02-14T06:10:44;14.63;;;9.13;;
22764;SDS011;11549;50.852;3.816;2024-02-14T06:13:12;17.38;;;10.07;;
22764;SDS011;11549;50.852;3.816;2024-02-14T06:15:41;16.02;;;9.82;;
22764;SDS011;11549;50.852;3.816;2024-02-14T06:18:09;17.67;;;10.90;;
22764;SDS011;11549;50.852;3.816;2024-02-14T06:20:38;14.88;;;10.35;;
22764;SDS011;11549;50.852;3.816;2024-02-14T06:23:07;19.65;;;11.35;;
22764;SDS011;11549;50.852;3.816;2024-02-14T06:25:37;17.48;;;11.38;;
22764;SDS011;11549;50.852;3.816;2024-02-14T06:28:05;16.25;;;10.88;;
22764;SDS011;11549;50.852;3.816;2024-02-14T06:30:36;17.98;;;11.35;;
22764;SDS011;11549;50.852;3.816;2024-02-14T06:33:04;14.90;;;10.70;;
22764;SDS011;11549;50.852;3.816;2024-02-14T06:35:33;17.90;;;11.27;;
22764;SDS011;11549;50.852;3.816;2024-02-14T06:38:02;19.10;;;11.00;;
22764;SDS011;11549;50.852;3.816;2024-02-14T06:40:32;18.75;;;10.77;;
22764;SDS011;11549;50.852;3.816;2024-02-14T06:43:02;18.50;;;10.32;;
22764;SDS011;11549;50.852;3.816;2024-02-14T06:45:33;16.42;;;10.98;;
22764;SDS011;11549;50.852;3.816;2024-02-14T06:48:01;15.98;;;10.55;;
22764;SDS011;11549;50.852;3.816;2024-02-14T06:50:30;16.98;;;10.18;;
22764;SDS011;11549;50.852;3.816;2024-02-14T06:52:59;19.23;;;9.90;;
22764;SDS011;11549;50.852;3.816;2024-02-14T06:55:27;21.25;;;10.73;;
22764;SDS011;11549;50.852;3.816;2024-02-14T06:57:58;17.77;;;10.43;;
22764;SDS011;11549;50.852;3.816;2024-02-14T07:00:29;16.25;;;9.55;;
22764;SDS011;11549;50.852;3.816;2024-02-14T07:02:57;18.45;;;10.43;;
22764;SDS011;11549;50.852;3.816;2024-02-14T07:05:26;18.05;;;9.88;;
22764;SDS011;11549;50.852;3.816;2024-02-14T07:07:56;14.20;;;9.52;;
22764;SDS011;11549;50.852;3.816;2024-02-14T07:10:25;17.55;;;9.88;;
22764;SDS011;11549;50.852;3.816;2024-02-14T07:12:53;16.38;;;9.30;;
22764;SDS011;11549;50.852;3.816;2024-02-14T07:15:22;15.70;;;10.18;;
22764;SDS011;11549;50.852;3.816;2024-02-14T07:17:56;19.42;;;10.15;;
22764;SDS011;11549;50.852;3.816;2024-02-14T07:20:26;19.40;;;10.38;;
22764;SDS011;11549;50.852;3.816;2024-02-14T07:22:54;16.20;;;10.20;;
22764;SDS011;11549;50.852;3.816;2024-02-14T07:25:23;16.65;;;10.27;;
22764;SDS011;11549;50.852;3.816;2024-02-14T07:27:52;21.92;;;10.75;;
22764;SDS011;11549;50.852;3.816;2024-02-14T07:30:20;19.20;;;10.90;;
22764;SDS011;11549;50.852;3.816;2024-02-14T07:32:48;15.73;;;10.38;;
22764;SDS011;11549;50.852;3.816;2024-02-14T07:35:20;16.95;;;11.52;;
22764;SDS011;11549;50.852;3.816;2024-02-14T07:37:48;22.15;;;12.38;;
22764;SDS011;11549;50.852;3.816;2024-02-14T07:40:17;18.75;;;11.68;;
22764;SDS011;11549;50.852;3.816;2024-02-14T07:42:45;19.40;;;12.10;;
22764;SDS011;11549;50.852;3.816;2024-02-14T07:45:13;13.90;;;10.88;;
22764;SDS011;11549;50.852;3.816;2024-02-14T07:47:43;17.02;;;10.73;;
22764;SDS011;11549;50.852;3.816;2024-02-14T07:50:12;18.38;;;11.75;;
22764;SDS011;11549;50.852;3.816;2024-02-14T07:52:42;18.85;;;12.90;;
22764;SDS011;11549;50.852;3.816;2024-02-14T07:55:11;18.90;;;11.38;;
22764;SDS011;11549;50.852;3.816;2024-02-14T07:57:40;18.13;;;10.85;;
22764;SDS011;11549;50.852;3.816;2024-02-14T08:00:09;15.75;;;10.63;;
22764;SDS011;11549;50.852;3.816;2024-02-14T08:02:41;15.73;;;10.27;;
22764;SDS011;11549;50.852;3.816;2024-02-14T08:05:09;20.63;;;12.82;;
22764;SDS011;11549;50.852;3.816;2024-02-14T08:07:38;17.60;;;11.68;;
22764;SDS011;11549;50.852;3.816;2024-02-14T08:10:08;17.17;;;12.27;;
22764;SDS011;11549;50.852;3.816;2024-02-14T08:12:37;17.10;;;11.07;;
22764;SDS011;11549;50.852;3.816;2024-02-14T08:15:05;18.50;;;11.57;;
22764;SDS011;11549;50.852;3.816;2024-02-14T08:17:35;18.48;;;10.80;;
22764;SDS011;11549;50.852;3.816;2024-02-14T08:20:04;19.80;;;11.10;;
22764;SDS011;11549;50.852;3.816;2024-02-14T08:22:33;17.63;;;10.75;;
22764;SDS011;11549;50.852;3.816;2024-02-14T08:25:02;16.08;;;10.23;;
22764;SDS011;11549;50.852;3.816;2024-02-14T08:27:32;14.82;;;9.77;;
22764;SDS011;11549;50.852;3.816;2024-02-14T08:30:01;14.82;;;10.13;;
22764;SDS011;11549;50.852;3.816;2024-02-14T08:32:31;14.60;;;10.07;;
22764;SDS011;11549;50.852;3.816;2024-02-14T08:35:01;16.00;;;10.57;;
22764;SDS011;11549;50.852;3.816;2024-02-14T08:37:29;16.55;;;10.30;;
22764;SDS011;11549;50.852;3.816;2024-02-14T08:39:58;15.20;;;9.65;;
22764;SDS011;11549;50.852;3.816;2024-02-14T08:42:26;15.15;;;9.80;;
22764;SDS011;11549;50.852;3.816;2024-02-14T08:44:56;20.08;;;11.40;;
22764;SDS011;11549;50.852;3.816;2024-02-14T08:47:24;20.52;;;11.68;;
22764;SDS011;11549;50.852;3.816;2024-02-14T08:49:53;15.25;;;11.43;;
22764;SDS011;11549;50.852;3.816;2024-02-14T08:52:21;17.52;;;10.95;;
22764;SDS011;11549;50.852;3.816;2024-02-14T08:54:50;17.75;;;10.32;;
22764;SDS011;11549;50.852;3.816;2024-02-14T08:57:18;15.32;;;10.15;;
22764;SDS011;11549;50.852;3.816;2024-02-14T08:59:47;12.88;;;9.27;;
22764;SDS011;11549;50.852;3.816;2024-02-14T09:02:18;14.80;;;8.77;;
22764;SDS011;11549;50.852;3.816;2024-02-14T09:04:48;11.05;;;7.78;;
22764;SDS011;11549;50.852;3.816;2024-02-14T09:07:17;11.40;;;8.05;;
22764;SDS011;11549;50.852;3.816;2024-02-14T09:09:46;10.60;;;7.95;;
22764;SDS011;11549;50.852;3.816;2024-02-14T09:12:14;10.57;;;7.80;;
22764;SDS011;11549;50.852;3.816;2024-02-14T09:14:43;9.00;;;6.90;;
22764;SDS011;11549;50.852;3.816;2024-02-14T09:17:11;12.90;;;7.90;;
22764;SDS011;11549;50.852;3.816;2024-02-14T09:19:41;9.13;;;7.97;;
22764;SDS011;11549;50.852;3.816;2024-02-14T09:22:10;9.80;;;7.70;;
22764;SDS011;11549;50.852;3.816;2024-02-14T09:24:44;10.77;;;7.80;;
22764;SDS011;11549;50.852;3.816;2024-02-14T09:27:13;12.52;;;8.50;;
22764;SDS011;11549;50.852;3.816;2024-02-14T09:29:41;11.82;;;8.15;;
22764;SDS011;11549;50.852;3.816;2024-02-14T09:32:10;12.20;;;8.98;;
22764;SDS011;11549;50.852;3.816;2024-02-14T09:34:38;11.63;;;8.82;;
22764;SDS011;11549;50.852;3.816;2024-02-14T09:37:08;15.52;;;9.57;;
22764;SDS011;11549;50.852;3.816;2024-02-14T09:39:37;14.02;;;8.80;;
22764;SDS011;11549;50.852;3.816;2024-02-14T09:42:07;11.35;;;8.43;;
22764;SDS011;11549;50.852;3.816;2024-02-14T09:44:38;12.77;;;9.07;;
22764;SDS011;11549;50.852;3.816;2024-02-14T09:47:09;10.43;;;8.38;;
22764;SDS011;11549;50.852;3.816;2024-02-14T09:49:38;10.40;;;8.13;;
22764;SDS011;11549;50.852;3.816;2024-02-14T09:52:10;9.98;;;7.47;;
22764;SDS011;11549;50.852;3.816;2024-02-14T09:54:40;9.70;;;7.47;;
22764;SDS011;11549;50.852;3.816;2024-02-14T09:57:08;11.77;;;8.00;;
22764;SDS011;11549;50.852;3.816;2024-02-14T09:59:38;10.30;;;7.75;;
22764;SDS011;11549;50.852;3.816;2024-02-14T10:02:08;9.82;;;7.80;;
22764;SDS011;11549;50.852;3.816;2024-02-14T10:04:37;10.18;;;8.10;;
22764;SDS011;11549;50.852;3.816;2024-02-14T10:07:06;8.82;;;6.82;;
22764;SDS011;11549;50.852;3.816;2024-02-14T10:09:41;10.80;;;7.38;;
22764;SDS011;11549;50.852;3.816;2024-02-14T10:12:10;8.52;;;7.03;;
22764;SDS011;11549;50.852;3.816;2024-02-14T10:14:39;9.25;;;6.80;;
22764;SDS011;11549;50.852;3.816;2024-02-14T10:17:16;9.13;;;7.00;;
22764;SDS011;11549;50.852;3.816;2024-02-14T10:19:54;10.00;;;6.93;;
22764;SDS011;11549;50.852;3.816;2024-02-14T10:22:24;9.30;;;7.53;;
22764;SDS011;11549;50.852;3.816;2024-02-14T10:24:54;12.50;;;9.73;;
22764;SDS011;11549;50.852;3.816;2024-02-14T10:27:22;11.55;;;8.88;;
22764;SDS011;11549;50.852;3.816;2024-02-14T10:29:51;10.82;;;7.80;;
22764;SDS011;11549;50.852;3.816;2024-02-14T10:32:19;9.10;;;7.30;;
22764;SDS011;11549;50.852;3.816;2024-02-14T10:34:48;9.13;;;7.03;;
22764;SDS011;11549;50.852;3.816;2024-02-14T10:37:17;11.00;;;8.00;;
22764;SDS011;11549;50.852;3.816;2024-02-14T10:39:48;9.93;;;7.78;;
22764;SDS011;11549;50.852;3.816;2024-02-14T10:42:21;10.52;;;7.53;;
22764;SDS011;11549;50.852;3.816;2024-02-14T10:44:49;10.32;;;8.25;;
22764;SDS011;11549;50.852;3.816;2024-02-14T10:47:19;10.85;;;8.18;;
22764;SDS011;11549;50.852;3.816;2024-02-14T10:49:48;10.35;;;8.15;;
22764;SDS011;11549;50.852;3.816;2024-02-14T10:52:18;12.50;;;9.38;;
22764;SDS011;11549;50.852;3.816;2024-02-14T10:54:49;12.98;;;9.43;;
22764;SDS011;11549;50.852;3.816;2024-02-14T10:57:25;11.85;;;9.73;;
22764;SDS011;11549;50.852;3.816;2024-02-14T10:59:55;13.43;;;10.82;;
22764;SDS011;11549;50.852;3.816;2024-02-14T11:02:25;15.57;;;10.50;;
22764;SDS011;11549;50.852;3.816;2024-02-14T11:04:56;15.80;;;11.15;;
22764;SDS011;11549;50.852;3.816;2024-02-14T11:07:27;14.80;;;10.52;;
22764;SDS011;11549;50.852;3.816;2024-02-14T11:10:06;14.40;;;11.20;;
22764;SDS011;11549;50.852;3.816;2024-02-14T11:12:36;14.52;;;12.13;;
22764;SDS011;11549;50.852;3.816;2024-02-14T11:15:09;13.82;;;10.65;;
22764;SDS011;11549;50.852;3.816;2024-02-14T11:17:38;14.23;;;11.73;;
22764;SDS011;11549;50.852;3.816;2024-02-14T11:20:16;15.23;;;12.50;;
22764;SDS011;11549;50.852;3.816;2024-02-14T11:22:56;16.10;;;12.60;;
22764;SDS011;11549;50.852;3.816;2024-02-14T11:25:29;19.67;;;13.20;;
22764;SDS011;11549;50.852;3.816;2024-02-14T11:28:00;16.30;;;12.82;;
22764;SDS011;11549;50.852;3.816;2024-02-14T11:30:40;19.75;;;13.48;;
22764;SDS011;11549;50.852;3.816;2024-02-14T11:33:13;20.15;;;12.30;;
22764;SDS011;11549;50.852;3.816;2024-02-14T11:35:45;16.15;;;11.38;;
22764;SDS011;11549;50.852;3.816;2024-02-14T11:38:16;14.30;;;10.77;;
22764;SDS011;11549;50.852;3.816;2024-02-14T11:40:45;13.73;;;10.60;;
22764;SDS011;11549;50.852;3.816;2024-02-14T11:43:17;14.40;;;10.13;;
22764;SDS011;11549;50.852;3.816;2024-02-14T11:45:47;16.88;;;10.60;;
22764;SDS011;11549;50.852;3.816;2024-02-14T11:48:16;15.32;;;10.18;;
22764;SDS011;11549;50.852;3.816;2024-02-14T11:50:47;13.38;;;10.55;;
22764;SDS011;11549;50.852;3.816;2024-02-14T11:53:16;12.10;;;9.13;;
22764;SDS011;11549;50.852;3.816;2024-02-14T11:55:45;12.80;;;9.50;;
22764;SDS011;11549;50.852;3.816;2024-02-14T11:58:16;14.30;;;8.95;;
22764;SDS011;11549;50.852;3.816;2024-02-14T12:00:46;11.93;;;8.50;;
22764;SDS011;11549;50.852;3.816;2024-02-14T12:03:16;12.82;;;8.55;;
22764;SDS011;11549;50.852;3.816;2024-02-14T12:05:47;14.27;;;8.77;;
22764;SDS011;11549;50.852;3.816;2024-02-14T12:08:18;14.95;;;8.88;;
22764;SDS011;11549;50.852;3.816;2024-02-14T12:10:47;16.13;;;9.45;;
22764;SDS011;11549;50.852;3.816;2024-02-14T12:13:20;12.93;;;9.32;;
22764;SDS011;11549;50.852;3.816;2024-02-14T12:15:49;14.70;;;10.38;;
22764;SDS011;11549;50.852;3.816;2024-02-14T12:18:19;18.50;;;10.75;;
22764;SDS011;11549;50.852;3.816;2024-02-14T12:20:49;17.65;;;11.00;;
22764;SDS011;11549;50.852;3.816;2024-02-14T12:23:22;14.93;;;10.07;;
22764;SDS011;11549;50.852;3.816;2024-02-14T12:25:53;14.30;;;9.50;;
22764;SDS011;11549;50.852;3.816;2024-02-14T12:28:23;13.35;;;9.35;;
22764;SDS011;11549;50.852;3.816;2024-02-14T12:30:51;12.95;;;9.05;;
22764;SDS011;11549;50.852;3.816;2024-02-14T12:33:23;12.05;;;8.32;;
22764;SDS011;11549;50.852;3.816;2024-02-14T12:35:53;12.18;;;7.35;;
22764;SDS011;11549;50.852;3.816;2024-02-14T12:38:24;13.90;;;8.15;;
22764;SDS011;11549;50.852;3.816;2024-02-14T12:40:52;14.27;;;8.10;;
22764;SDS011;11549;50.852;3.816;2024-02-14T12:43:22;13.27;;;8.52;;
22764;SDS011;11549;50.852;3.816;2024-02-14T12:45:51;11.85;;;8.32;;
22764;SDS011;11549;50.852;3.816;2024-02-14T12:48:21;12.77;;;8.00;;
22764;SDS011;11549;50.852;3.816;2024-02-14T12:50:51;10.45;;;7.40;;
22764;SDS011;11549;50.852;3.816;2024-02-14T12:53:19;9.52;;;7.13;;
22764;SDS011;11549;50.852;3.816;2024-02-14T12:55:48;10.68;;;7.13;;
22764;SDS011;11549;50.852;3.816;2024-02-14T12:58:17;9.55;;;7.40;;
22764;SDS011;11549;50.852;3.816;2024-02-14T13:00:47;8.88;;;5.75;;
22764;SDS011;11549;50.852;3.816;2024-02-14T13:03:16;9.18;;;6.25;;
22764;SDS011;11549;50.852;3.816;2024-02-14T13:05:46;8.88;;;5.72;;
22764;SDS011;11549;50.852;3.816;2024-02-14T13:08:15;7.65;;;5.30;;
22764;SDS011;11549;50.852;3.816;2024-02-14T13:10:44;8.57;;;5.50;;
22764;SDS011;11549;50.852;3.816;2024-02-14T13:13:13;9.13;;;5.43;;
22764;SDS011;11549;50.852;3.816;2024-02-14T13:15:41;9.80;;;5.47;;
22764;SDS011;11549;50.852;3.816;2024-02-14T13:18:13;10.15;;;5.20;;
22764;SDS011;11549;50.852;3.816;2024-02-14T13:20:42;7.95;;;5.50;;
22764;SDS011;11549;50.852;3.816;2024-02-14T13:23:12;11.52;;;5.70;;
22764;SDS011;11549;50.852;3.816;2024-02-14T13:25:41;10.30;;;6.05;;
22764;SDS011;11549;50.852;3.816;2024-02-14T13:28:09;9.40;;;6.05;;
22764;SDS011;11549;50.852;3.816;2024-02-14T13:30:38;11.25;;;6.55;;
22764;SDS011;11549;50.852;3.816;2024-02-14T13:33:06;8.80;;;6.72;;
22764;SDS011;11549;50.852;3.816;2024-02-14T13:35:38;10.48;;;6.22;;
22764;SDS011;11549;50.852;3.816;2024-02-14T13:38:06;10.23;;;6.45;;
22764;SDS011;11549;50.852;3.816;2024-02-14T13:40:36;11.38;;;6.13;;
22764;SDS011;11549;50.852;3.816;2024-02-14T13:43:05;9.68;;;5.85;;
22764;SDS011;11549;50.852;3.816;2024-02-14T13:45:39;10.02;;;5.68;;
22764;SDS011;11549;50.852;3.816;2024-02-14T13:48:10;9.77;;;5.35;;
22764;SDS011;11549;50.852;3.816;2024-02-14T13:50:41;8.98;;;5.20;;
22764;SDS011;11549;50.852;3.816;2024-02-14T13:53:10;8.45;;;5.20;;
22764;SDS011;11549;50.852;3.816;2024-02-14T13:55:39;9.32;;;5.35;;
22764;SDS011;11549;50.852;3.816;2024-02-14T13:58:07;11.70;;;5.15;;
22764;SDS011;11549;50.852;3.816;2024-02-14T14:00:42;10.70;;;5.72;;
22764;SDS011;11549;50.852;3.816;2024-02-14T14:03:11;7.97;;;5.40;;
22764;SDS011;11549;50.852;3.816;2024-02-14T14:05:41;9.65;;;5.25;;
22764;SDS011;11549;50.852;3.816;2024-02-14T14:08:10;8.95;;;4.90;;
22764;SDS011;11549;50.852;3.816;2024-02-14T14:10:39;11.93;;;5.40;;
22764;SDS011;11549;50.852;3.816;2024-02-14T14:13:09;8.38;;;5.15;;
22764;SDS011;11549;50.852;3.816;2024-02-14T14:15:38;8.60;;;5.60;;
22764;SDS011;11549;50.852;3.816;2024-02-14T14:18:07;10.52;;;5.93;;
22764;SDS011;11549;50.852;3.816;2024-02-14T14:20:37;11.25;;;5.53;;
22764;SDS011;11549;50.852;3.816;2024-02-14T14:23:07;10.32;;;6.05;;
22764;SDS011;11549;50.852;3.816;2024-02-14T14:25:36;11.65;;;6.35;;
22764;SDS011;11549;50.852;3.816;2024-02-14T14:28:05;11.05;;;5.85;;
22764;SDS011;11549;50.852;3.816;2024-02-14T14:30:36;10.00;;;5.70;;
22764;SDS011;11549;50.852;3.816;2024-02-14T14:33:05;11.30;;;5.55;;
22764;SDS011;11549;50.852;3.816;2024-02-14T14:35:34;11.35;;;5.88;;
22764;SDS011;11549;50.852;3.816;2024-02-14T14:38:03;10.13;;;5.30;;
22764;SDS011;11549;50.852;3.816;2024-02-14T14:40:33;10.65;;;6.30;;
22764;SDS011;11549;50.852;3.816;2024-02-14T14:43:04;11.57;;;6.28;;